Terminal Aerodrome Forecast
Issued by NWS

Home | Current Version | Previous Version | Text Only | Print | Product List | Glossary On
Versions: 1 2 3 4 5 6 7 8 9 10 11 12 13 14 15 16 17 18
254
FTUS44 KMAF 192338
TAFCNM
TAF
KCNM 192338Z 2000/2024 14019G29KT P6SM BKN040
     FM200700 14011KT P6SM OVC035
      TEMPO 2007/2011 BKN025
     FM201400 16018G28KT P6SM BKN035
     FM201900 24025G35KT P6SM SCT250=

USA.gov is the U.S. government's official web portal to all federal, state and local government web resources and services.